In Rescue
 
Open Full Screen Window  High Contrast Mode
Wind Gusting 00 knots
07
November 14, 2019 2:56 PM EST
Weather Information
Wind Direction
  260 °
Wind Speed
  07 kt (8 mph)
Wind Gust
  00 kt (0 mph)
Altimeter
30.18 in
Visibility
10 SM
Temperature
00° C
32° F
Dewpoint
-02° C
28° F
Humidity
87%
Sky Condition
Overcast @ 1,800 ft
MVFR

METAR KVLL 141956Z AUTO 26007KT 10SM OVC018 00/M02 A3018 RMK AO2 T00021023

FAA Disclaimer: The data displayed is for advisory purposes only and is not to be used for flight planning or operations.